YMML/MEL METAR and TAF weather

Enter ICAO airport designator
Station Type Date Time Source
YMML METAR 2024/04/18 07:00 UTC NOAA

YMML 180700Z 27010KT 9999 -SHRA FEW030 BKN034 15/09 Q1018 RF00.0/000.0


Station Type Date Time Source
YMML Decoded METAR 2024/04/18 07:00 UTC NOAA

Melbourne Airport, Australia (YMML) 37-40S 144-50E 141M
Apr 18, 2024 - 03:00 AM EDT / 2024.04.18 0700 UTC
Wind: from the W (270 degrees) at 12 MPH (10 KT):0
Visibility: greater than 7 mile(s):0
Sky conditions: mostly cloudy
Weather: light rain showers
Temperature: 59 F (15 C)
Dew Point: 48 F (9 C)
Relative Humidity: 67%
Pressure (altimeter): 30.06 in. Hg (1018 hPa)
ob: YMML 180700Z 27010KT 9999 -SHRA FEW030 BKN034 15/09 Q1018 RF00.0/000.0
cycle: 7

Station Type Date Time Source
YMML TAF 2024/04/18 21:55 UTC NOAA